Time;durP1;ratioP1;P1;durP2;ratioP2;P2;SDS_P1;SDS_P2;PMS_P1;PMS_P2;Temp;Humidity;BMP_temperature;BMP_pressure;BME280_temperature;BME280_humidity;BME280_pressure;Samples;Min_cycle;Max_cycle;Signal;HPM_P1;HPM_P2
2022/03/30 00:01:15;;;;;;;0.63;0.63;;;12.10;54.20;;;;;;5033086;28;20181;-64
2022/03/30 00:03:40;;;;;;;0.30;0.30;;;12.10;53.60;;;;;;5033069;28;20167;-64
2022/03/30 00:06:06;;;;;;;0.30;0.30;;;12.10;53.30;;;;;;5033124;28;20406;-64
2022/03/30 00:08:32;;;;;;;0.40;0.40;;;12.00;53.80;;;;;;5031806;28;20226;-64
2022/03/30 00:10:59;;;;;;;0.30;0.30;;;12.10;54.30;;;;;;5032724;28;20186;-64
2022/03/30 00:13:25;;;;;;;0.30;0.30;;;12.10;53.30;;;;;;5032943;28;20537;-63
2022/03/30 00:15:51;;;;;;;0.30;0.30;;;12.10;53.10;;;;;;5032874;28;20242;-64
2022/03/30 00:18:17;;;;;;;0.30;0.30;;;12.10;54.60;;;;;;5048008;28;20221;-64
2022/03/30 00:20:44;;;;;;;0.30;0.30;;;12.10;54.40;;;;;;5032835;28;20405;-63
2022/03/30 00:23:10;;;;;;;0.30;0.30;;;11.70;55.00;;;;;;5032873;28;20205;-64
2022/03/30 00:25:35;;;;;;;0.30;0.30;;;11.50;56.20;;;;;;5032738;28;20171;-63
2022/03/30 00:28:02;;;;;;;0.30;0.30;;;11.50;58.50;;;;;;5032715;28;20520;-64
2022/03/30 00:30:28;;;;;;;0.40;0.40;;;11.60;59.70;;;;;;5033205;28;20162;-63
2022/03/30 00:32:54;;;;;;;0.30;0.30;;;11.70;60.10;;;;;;5036470;28;20179;-64
2022/03/30 00:35:19;;;;;;;1.27;1.27;;;11.80;61.30;;;;;;5036520;28;20167;-64
2022/03/30 00:37:45;;;;;;;0.30;0.30;;;11.80;60.10;;;;;;5036294;28;20199;-64
2022/03/30 00:40:13;;;;;;;0.40;0.40;;;11.90;61.20;;;;;;5036039;28;20178;-64
2022/03/30 00:42:39;;;;;;;0.60;0.60;;;11.90;60.10;;;;;;5036427;28;20171;-64
2022/03/30 00:45:14;;;;;;;0.30;0.30;;;12.00;60.40;;;;;;5036199;28;20186;-64
2022/03/30 00:47:41;;;;;;;0.30;0.30;;;12.10;60.80;;;;;;5036111;28;20279;-64
2022/03/30 00:50:08;;;;;;;0.52;0.52;;;12.20;61.00;;;;;;5035717;28;20179;-64
2022/03/30 00:52:34;;;;;;;0.30;0.30;;;12.20;62.30;;;;;;5036034;28;20175;-63
2022/03/30 00:55:00;;;;;;;0.30;0.30;;;12.20;64.40;;;;;;5035956;28;20204;-64
2022/03/30 00:57:28;;;;;;;0.30;0.30;;;12.30;65.90;;;;;;5035753;28;20417;-63
2022/03/30 00:59:55;;;;;;;0.63;0.63;;;12.20;66.60;;;;;;5035857;28;20565;-64
2022/03/30 01:02:21;;;;;;;0.40;0.40;;;12.10;67.80;;;;;;5036038;28;20175;-64
2022/03/30 01:04:47;;;;;;;0.30;0.30;;;12.10;69.00;;;;;;5035863;28;20171;-64
2022/03/30 01:07:13;;;;;;;0.30;0.30;;;12.10;68.50;;;;;;5035882;28;20783;-64
2022/03/30 01:09:40;;;;;;;0.30;0.30;;;12.10;68.70;;;;;;5035550;28;20178;-64
2022/03/30 01:12:07;;;;;;;0.30;0.30;;;12.00;69.30;;;;;;5035693;28;20171;-64
2022/03/30 01:14:34;;;;;;;0.30;0.30;;;12.00;68.30;;;;;;5035699;28;20174;-64
2022/03/30 01:16:59;;;;;;;0.30;0.30;;;12.10;68.90;;;;;;5035768;28;20221;-64
2022/03/30 01:19:29;;;;;;;0.30;0.30;;;12.00;68.70;;;;;;5035208;28;20211;-63
2022/03/30 01:21:55;;;;;;;0.43;0.43;;;12.10;69.30;;;;;;5035296;28;20236;-64
2022/03/30 01:24:21;;;;;;;0.30;0.30;;;12.10;70.10;;;;;;5035474;28;20572;-64
2022/03/30 01:26:47;;;;;;;0.30;0.30;;;12.10;72.90;;;;;;5035724;28;20397;-63
2022/03/30 01:35:01;;;;;;;0.30;0.30;;;11.90;78.50;;;;;;5043256;28;20264;-64
2022/03/30 01:37:28;;;;;;;2.97;2.78;;;11.80;80.00;;;;;;5035017;28;20200;-64
2022/03/30 01:39:56;;;;;;;0.30;0.30;;;11.80;81.40;;;;;;5035012;28;20644;-64
2022/03/30 01:42:23;;;;;;;0.30;0.30;;;11.70;81.30;;;;;;5034672;28;20180;-64
2022/03/30 01:44:49;;;;;;;0.30;0.30;;;11.60;81.80;;;;;;5035064;28;20167;-63
2022/03/30 01:47:15;;;;;;;0.30;0.30;;;11.50;83.10;;;;;;5034976;28;20259;-63
2022/03/30 01:49:41;;;;;;;0.32;0.32;;;11.50;84.90;;;;;;5034805;28;20408;-64
2022/03/30 01:52:08;;;;;;;0.30;0.30;;;11.40;86.40;;;;;;5035038;28;20178;-64
2022/03/30 01:54:37;;;;;;;0.30;0.30;;;11.40;86.50;;;;;;5035081;28;20540;-63
2022/03/30 01:57:04;;;;;;;0.30;0.30;;;11.30;87.30;;;;;;5034897;28;20181;-64
2022/03/30 01:59:30;;;;;;;0.30;0.30;;;11.30;88.60;;;;;;5034779;28;20205;-64
2022/03/30 02:01:56;;;;;;;0.30;0.30;;;11.30;89.10;;;;;;5034911;28;20179;-63
2022/03/30 02:04:22;;;;;;;0.30;0.30;;;11.20;90.00;;;;;;5034763;28;20178;-63
2022/03/30 02:06:48;;;;;;;0.30;0.30;;;11.10;90.70;;;;;;5034762;28;20205;-64
2022/03/30 02:09:14;;;;;;;0.40;0.40;;;11.10;90.90;;;;;;5034317;28;20197;-64
2022/03/30 02:11:40;;;;;;;0.30;0.30;;;11.10;91.50;;;;;;5034412;28;20253;-64
2022/03/30 02:14:06;;;;;;;0.30;0.30;;;11.10;91.70;;;;;;5034501;28;20201;-63
2022/03/30 02:16:32;;;;;;;2.47;2.33;;;11.00;92.00;;;;;;5034635;28;20427;-63
2022/03/30 02:18:58;;;;;;;0.30;0.30;;;11.00;92.60;;;;;;5034087;28;20463;-64
2022/03/30 02:21:24;;;;;;;0.30;0.30;;;11.00;92.80;;;;;;5034576;28;20656;-64
2022/03/30 02:23:51;;;;;;;0.30;0.30;;;10.90;93.00;;;;;;5034542;28;20185;-63
2022/03/30 02:26:17;;;;;;;0.75;0.75;;;10.90;93.50;;;;;;5034394;28;20190;-64
2022/03/30 02:28:51;;;;;;;0.30;0.30;;;11.00;93.40;;;;;;5034029;28;20200;-64
2022/03/30 02:31:17;;;;;;;0.40;0.40;;;10.90;93.20;;;;;;5034272;28;20234;-64
2022/03/30 02:33:43;;;;;;;0.30;0.30;;;10.90;93.60;;;;;;5034214;28;20213;-64
2022/03/30 02:36:08;;;;;;;0.30;0.30;;;10.80;94.10;;;;;;5034180;28;20565;-64
2022/03/30 02:38:34;;;;;;;1.07;1.07;;;10.90;94.20;;;;;;5033910;28;20202;-64
2022/03/30 02:41:01;;;;;;;0.30;0.30;;;10.90;94.30;;;;;;5033828;28;20624;-64
2022/03/30 02:43:26;;;;;;;0.30;0.30;;;10.90;94.60;;;;;;5033966;28;20172;-64
2022/03/30 02:45:52;;;;;;;0.30;0.30;;;10.80;94.90;;;;;;5034120;28;20173;-64
2022/03/30 02:48:17;;;;;;;0.30;0.30;;;10.70;95.10;;;;;;5034238;28;20197;-64
2022/03/30 02:50:45;;;;;;;0.30;0.30;;;10.70;95.20;;;;;;5033871;28;20175;-64
2022/03/30 02:53:11;;;;;;;0.30;0.30;;;10.80;95.40;;;;;;5033769;28;20253;-64
2022/03/30 02:55:37;;;;;;;0.40;0.40;;;10.70;95.40;;;;;;5032977;28;20276;-63
2022/03/30 02:58:04;;;;;;;0.30;0.30;;;10.70;96.00;;;;;;5033593;28;20643;-63
2022/03/30 03:00:30;;;;;;;0.40;0.40;;;10.70;95.70;;;;;;5033584;28;20410;-63
2022/03/30 03:02:56;;;;;;;0.30;0.30;;;10.80;95.60;;;;;;5033865;28;20175;-63
2022/03/30 03:05:21;;;;;;;0.60;0.60;;;10.90;95.60;;;;;;5033602;28;20174;-64
2022/03/30 03:07:47;;;;;;;0.40;0.40;;;10.90;95.30;;;;;;5033523;28;20193;-64
2022/03/30 03:10:13;;;;;;;0.30;0.30;;;10.80;95.60;;;;;;5033432;28;20636;-64
2022/03/30 03:12:38;;;;;;;0.40;0.40;;;10.90;95.70;;;;;;5033533;28;20613;-63
2022/03/30 03:15:04;;;;;;;0.30;0.30;;;10.90;95.60;;;;;;5033580;28;20178;-64
2022/03/30 03:17:30;;;;;;;0.30;0.30;;;10.90;95.80;;;;;;5033646;28;20215;-63
2022/03/30 03:19:55;;;;;;;0.40;0.40;;;10.90;96.00;;;;;;5033223;28;20849;-63
2022/03/30 03:22:21;;;;;;;0.40;0.40;;;10.90;95.80;;;;;;5033331;28;20273;-63
2022/03/30 03:24:47;;;;;;;0.40;0.40;;;10.90;95.80;;;;;;5033314;28;20180;-64
2022/03/30 03:27:12;;;;;;;0.40;0.40;;;10.80;96.10;;;;;;5033287;28;20185;-63
2022/03/30 03:29:38;;;;;;;0.30;0.30;;;10.80;96.20;;;;;;5032998;28;20177;-63
2022/03/30 03:32:05;;;;;;;0.40;0.40;;;10.80;96.20;;;;;;5033219;28;20208;-63
2022/03/30 03:34:31;;;;;;;0.30;0.30;;;10.80;96.40;;;;;;5033590;28;20177;-63
2022/03/30 03:36:57;;;;;;;0.30;0.30;;;10.80;96.30;;;;;;5033260;28;20703;-64
2022/03/30 03:39:23;;;;;;;0.30;0.30;;;10.90;96.40;;;;;;5033012;28;20452;-63
2022/03/30 03:41:49;;;;;;;0.30;0.30;;;10.80;96.50;;;;;;5033214;28;20507;-63
2022/03/30 03:44:17;;;;;;;0.30;0.30;;;10.80;96.50;;;;;;5033335;28;20169;-64
2022/03/30 03:46:43;;;;;;;0.30;0.30;;;10.80;96.50;;;;;;5033353;28;20174;-64
2022/03/30 03:49:09;;;;;;;0.40;0.40;;;10.80;96.50;;;;;;5048305;28;20563;-64
2022/03/30 03:51:34;;;;;;;0.40;0.40;;;10.90;96.50;;;;;;5033346;28;20232;-64
2022/03/30 03:54:00;;;;;;;0.30;0.30;;;10.90;96.40;;;;;;5033613;28;20177;-64
2022/03/30 03:56:26;;;;;;;0.30;0.30;;;10.90;96.50;;;;;;5033171;28;20170;-64
2022/03/30 03:58:52;;;;;;;0.30;0.30;;;10.90;96.50;;;;;;5032878;28;20205;-64
2022/03/30 04:01:18;;;;;;;0.40;0.40;;;10.90;96.70;;;;;;5032994;28;20166;-64
2022/03/30 04:03:43;;;;;;;0.30;0.30;;;10.90;96.90;;;;;;5033195;28;20683;-64
2022/03/30 04:06:10;;;;;;;0.40;0.40;;;10.90;96.70;;;;;;5034728;28;20257;-64
2022/03/30 04:08:36;;;;;;;0.30;0.30;;;10.90;96.60;;;;;;5036987;28;20741;-63
2022/03/30 04:11:01;;;;;;;1.93;1.23;;;10.90;96.50;;;;;;5036721;28;20177;-64
2022/03/30 04:13:27;;;;;;;0.30;0.30;;;10.80;96.60;;;;;;5037151;28;20488;-64
2022/03/30 04:15:53;;;;;;;0.60;0.60;;;10.80;96.90;;;;;;5037521;28;20178;-63
2022/03/30 04:18:19;;;;;;;0.40;0.40;;;10.80;97.20;;;;;;5036559;28;20196;-63
2022/03/30 04:20:45;;;;;;;0.60;0.60;;;10.70;97.30;;;;;;5036422;28;20404;-64
2022/03/30 04:23:11;;;;;;;2.40;2.30;;;10.70;97.20;;;;;;5036491;28;20427;-64
2022/03/30 04:25:37;;;;;;;0.30;0.30;;;10.80;97.20;;;;;;5036542;28;20415;-64
2022/03/30 04:28:03;;;;;;;0.30;0.30;;;10.80;97.20;;;;;;5036528;28;20209;-63
2022/03/30 04:30:29;;;;;;;0.40;0.40;;;10.60;97.30;;;;;;5036402;28;20166;-63
2022/03/30 04:32:54;;;;;;;0.40;0.40;;;10.50;97.60;;;;;;5036452;28;20185;-63
2022/03/30 04:35:25;;;;;;;0.30;0.30;;;10.50;97.70;;;;;;5036590;28;20177;-64
2022/03/30 04:37:55;;;;;;;0.30;0.30;;;10.60;97.70;;;;;;5034991;28;20687;-63
2022/03/30 04:40:22;;;;;;;0.30;0.30;;;10.70;97.50;;;;;;5036372;28;20268;-64
2022/03/30 04:42:49;;;;;;;0.30;0.30;;;10.70;97.50;;;;;;5036567;28;20175;-62
2022/03/30 04:45:14;;;;;;;0.43;0.43;;;10.70;97.50;;;;;;5036448;28;20646;-63
2022/03/30 04:47:40;;;;;;;0.30;0.30;;;10.50;97.70;;;;;;5036177;28;20211;-64
2022/03/30 04:50:06;;;;;;;0.30;0.30;;;10.50;98.00;;;;;;5036007;28;20183;-63
2022/03/30 04:52:32;;;;;;;0.30;0.30;;;10.50;98.20;;;;;;5036353;28;20177;-63
2022/03/30 04:54:58;;;;;;;0.30;0.30;;;10.60;98.20;;;;;;5051408;28;20682;-64
2022/03/30 04:57:24;;;;;;;0.32;0.32;;;10.60;98.00;;;;;;5035894;28;20240;-64
2022/03/30 04:59:49;;;;;;;0.30;0.30;;;10.60;97.80;;;;;;5035795;28;20587;-63
2022/03/30 05:02:15;;;;;;;0.30;0.30;;;10.60;97.90;;;;;;5036066;28;20579;-64
2022/03/30 05:04:41;;;;;;;0.30;0.30;;;10.60;97.90;;;;;;5036275;28;20198;-64
2022/03/30 05:07:06;;;;;;;6.27;1.53;;;10.40;98.20;;;;;;5035896;28;20405;-63
2022/03/30 05:09:32;;;;;;;0.30;0.30;;;10.40;98.50;;;;;;5035572;28;20177;-63
2022/03/30 05:11:58;;;;;;;0.87;0.87;;;10.20;98.50;;;;;;5036093;28;20587;-63
2022/03/30 05:14:24;;;;;;;0.30;0.30;;;10.20;98.70;;;;;;5035884;28;20252;-63
2022/03/30 05:16:49;;;;;;;0.30;0.30;;;10.20;98.80;;;;;;5035121;28;20648;-63
2022/03/30 05:19:15;;;;;;;0.30;0.30;;;10.20;98.70;;;;;;5035128;28;20359;-63
2022/03/30 05:21:41;;;;;;;0.30;0.30;;;10.20;98.70;;;;;;5035372;28;20326;-64
2022/03/30 05:24:06;;;;;;;0.30;0.30;;;10.20;98.60;;;;;;5035397;28;20162;-63
2022/03/30 05:26:32;;;;;;;0.40;0.40;;;10.30;98.60;;;;;;5035241;28;20170;-63
2022/03/30 05:28:58;;;;;;;0.30;0.30;;;10.40;98.30;;;;;;5035181;28;20221;-63
2022/03/30 05:31:23;;;;;;;0.30;0.30;;;10.50;98.10;;;;;;5035519;28;20170;-63
2022/03/30 05:33:49;;;;;;;0.30;0.30;;;10.40;98.10;;;;;;5035460;28;20181;-64
2022/03/30 05:36:14;;;;;;;0.30;0.30;;;10.50;98.30;;;;;;5035395;28;20192;-64
2022/03/30 05:38:40;;;;;;;0.30;0.30;;;10.40;98.20;;;;;;5035361;28;20251;-64
2022/03/30 05:41:06;;;;;;;2.93;1.57;;;10.50;98.50;;;;;;5035069;28;20180;-63
2022/03/30 05:43:31;;;;;;;0.30;0.30;;;10.60;98.30;;;;;;5035244;28;20644;-64
2022/03/30 05:45:57;;;;;;;0.30;0.30;;;10.60;98.10;;;;;;5035251;28;20185;-63
2022/03/30 05:48:24;;;;;;;0.30;0.30;;;10.50;98.20;;;;;;5034955;28;20194;-64
2022/03/30 05:50:51;;;;;;;0.85;0.85;;;10.50;98.30;;;;;;5034775;28;20176;-63
2022/03/30 05:53:18;;;;;;;0.60;0.60;;;10.40;98.50;;;;;;5034939;28;20178;-64
2022/03/30 05:55:47;;;;;;;0.30;0.30;;;10.10;98.70;;;;;;5034943;28;20506;-63
2022/03/30 05:58:14;;;;;;;0.30;0.30;;;9.90;99.80;;;;;;5034782;28;20212;-63
2022/03/30 06:00:40;;;;;;;0.40;0.40;;;9.80;99.90;;;;;;5034554;28;20170;-63
2022/03/30 06:03:06;;;;;;;0.40;0.40;;;9.70;99.90;;;;;;5034931;28;20168;-64
2022/03/30 06:05:32;;;;;;;0.30;0.30;;;9.40;99.90;;;;;;5034678;28;20165;-64
2022/03/30 06:07:59;;;;;;;0.30;0.30;;;9.40;99.90;;;;;;5034587;28;20433;-64
2022/03/30 06:10:28;;;;;;;1.25;1.25;;;9.10;99.90;;;;;;5034521;28;20165;-64
2022/03/30 06:12:55;;;;;;;0.30;0.30;;;9.20;99.90;;;;;;5034661;28;20173;-63
2022/03/30 06:15:21;;;;;;;0.40;0.40;;;9.20;99.90;;;;;;5034640;28;20257;-63
2022/03/30 06:17:48;;;;;;;1.73;1.73;;;9.40;99.90;;;;;;5034290;28;20547;-63
2022/03/30 06:20:15;;;;;;;0.30;0.30;;;9.40;99.90;;;;;;5034412;28;20170;-64
2022/03/30 06:22:44;;;;;;;0.30;0.30;;;9.60;99.90;;;;;;5034391;28;20189;-63
2022/03/30 06:25:10;;;;;;;0.30;0.30;;;9.60;99.90;;;;;;5034607;28;20254;-63
2022/03/30 06:27:36;;;;;;;1.30;1.30;;;9.70;99.90;;;;;;5034262;28;20208;-62
2022/03/30 06:30:05;;;;;;;0.35;0.35;;;9.60;99.90;;;;;;5034098;28;20179;-64
2022/03/30 06:32:30;;;;;;;0.30;0.30;;;9.70;99.90;;;;;;5034345;28;20174;-63
2022/03/30 06:34:56;;;;;;;0.40;0.40;;;10.00;99.90;;;;;;5034163;28;20580;-64
2022/03/30 06:37:22;;;;;;;0.30;0.30;;;10.20;99.50;;;;;;5034008;28;20227;-64
2022/03/30 06:39:49;;;;;;;0.40;0.40;;;10.50;99.10;;;;;;5033809;28;20208;-64
2022/03/30 06:42:16;;;;;;;0.95;0.95;;;10.60;98.60;;;;;;5034188;28;20184;-64
2022/03/30 06:44:42;;;;;;;0.30;0.30;;;10.70;98.50;;;;;;5034076;28;20280;-63
2022/03/30 06:47:08;;;;;;;0.30;0.30;;;10.80;98.30;;;;;;5033948;28;20248;-63
2022/03/30 06:49:35;;;;;;;0.30;0.30;;;10.60;98.30;;;;;;5033707;28;20523;-63
2022/03/30 06:52:01;;;;;;;0.30;0.30;;;10.80;98.30;;;;;;5033888;28;20409;-63
2022/03/30 06:54:26;;;;;;;0.30;0.30;;;10.70;98.50;;;;;;5033854;28;20654;-64
2022/03/30 06:56:52;;;;;;;0.40;0.40;;;10.50;98.20;;;;;;5033803;28;20213;-64
2022/03/30 06:59:18;;;;;;;0.30;0.30;;;10.60;98.30;;;;;;5033318;28;20204;-64
2022/03/30 07:01:44;;;;;;;0.65;0.65;;;10.60;98.40;;;;;;5033528;28;20173;-64
2022/03/30 07:04:10;;;;;;;0.30;0.30;;;10.40;98.20;;;;;;5033487;28;20647;-63
2022/03/30 07:06:36;;;;;;;0.40;0.40;;;10.20;98.60;;;;;;5033686;28;20202;-64
2022/03/30 07:11:45;;;;;;;0.30;0.30;;;10.40;99.30;;;;;;5033536;28;20185;-63
2022/03/30 07:14:11;;;;;;;0.40;0.40;;;10.50;98.50;;;;;;5033419;28;20178;-64
2022/03/30 07:16:37;;;;;;;0.30;0.30;;;10.50;98.70;;;;;;5033389;28;20540;-63
2022/03/30 07:19:03;;;;;;;0.30;0.30;;;10.40;98.70;;;;;;5033085;28;20198;-63
2022/03/30 07:21:28;;;;;;;0.30;0.30;;;10.50;98.70;;;;;;5033258;28;20643;-63
2022/03/30 07:23:54;;;;;;;0.30;0.30;;;10.60;98.00;;;;;;5033543;28;20258;-63
2022/03/30 07:26:21;;;;;;;0.30;0.30;;;10.50;98.10;;;;;;5033325;28;20252;-64
2022/03/30 07:28:46;;;;;;;0.40;0.40;;;10.20;98.60;;;;;;5033186;28;20193;-63
2022/03/30 07:31:13;;;;;;;0.30;0.30;;;10.10;98.70;;;;;;5033176;28;20174;-64
2022/03/30 07:33:38;;;;;;;0.50;0.50;;;10.00;99.40;;;;;;5033282;28;20170;-63
2022/03/30 07:36:04;;;;;;;0.30;0.30;;;10.20;99.70;;;;;;5033713;28;20185;-63
2022/03/30 07:38:30;;;;;;;0.30;0.30;;;10.50;99.40;;;;;;5033153;28;20684;-64
2022/03/30 07:41:00;;;;;;;0.30;0.30;;;10.80;99.00;;;;;;5034513;28;20184;-63
2022/03/30 07:43:25;;;;;;;0.30;0.30;;;10.90;98.80;;;;;;5037577;28;20166;-63
2022/03/30 07:45:52;;;;;;;0.30;0.30;;;11.10;98.30;;;;;;5037199;28;20632;-64
2022/03/30 07:48:18;;;;;;;0.30;0.30;;;11.30;97.90;;;;;;5037243;28;20277;-63
2022/03/30 07:50:44;;;;;;;0.40;0.40;;;11.40;97.60;;;;;;5037087;28;20202;-64
2022/03/30 07:53:09;;;;;;;0.30;0.30;;;11.30;96.50;;;;;;5036905;28;20171;-63
2022/03/30 07:55:38;;;;;;;0.30;0.30;;;11.30;97.10;;;;;;5037022;28;20174;-63
2022/03/30 07:58:04;;;;;;;0.30;0.30;;;11.50;97.10;;;;;;5036869;28;20198;-64
2022/03/30 08:00:29;;;;;;;0.30;0.30;;;11.40;96.60;;;;;;5036989;28;20541;-64
2022/03/30 08:02:55;;;;;;;0.30;0.30;;;11.10;96.70;;;;;;5036860;28;20166;-64
2022/03/30 08:05:21;;;;;;;0.30;0.30;;;11.20;97.10;;;;;;5037136;28;20171;-64
2022/03/30 08:07:49;;;;;;;0.77;0.77;;;10.80;97.60;;;;;;5037073;28;20468;-64
2022/03/30 08:10:15;;;;;;;0.30;0.30;;;10.80;98.40;;;;;;5036594;28;20401;-64
2022/03/30 08:12:41;;;;;;;0.30;0.30;;;11.00;98.50;;;;;;5036637;28;20182;-63
2022/03/30 08:15:08;;;;;;;0.30;0.30;;;11.00;98.10;;;;;;5036873;28;20181;-63
2022/03/30 08:17:34;;;;;;;0.30;0.30;;;10.80;98.40;;;;;;5036818;28;20672;-63
2022/03/30 08:20:00;;;;;;;0.30;0.30;;;10.40;98.40;;;;;;5036577;28;20178;-63
2022/03/30 08:22:26;;;;;;;0.30;0.30;;;9.90;99.90;;;;;;5036538;28;20432;-64
2022/03/30 08:25:02;;;;;;;0.30;0.30;;;10.10;99.90;;;;;;5036655;28;20594;-64
2022/03/30 08:27:30;;;;;;;0.30;0.30;;;10.30;99.60;;;;;;5036463;28;20209;-64
2022/03/30 08:29:57;;;;;;;0.30;0.30;;;10.30;99.60;;;;;;5036481;28;20183;-64
2022/03/30 08:32:24;;;;;;;0.30;0.30;;;10.20;99.50;;;;;;5036636;28;20253;-64
2022/03/30 08:34:53;;;;;;;0.30;0.30;;;10.20;99.80;;;;;;5036597;28;20178;-66
2022/03/30 08:37:19;;;;;;;0.30;0.30;;;10.30;99.80;;;;;;5036723;28;20300;-64
2022/03/30 08:39:45;;;;;;;0.30;0.30;;;10.20;99.60;;;;;;5036056;28;20699;-64
2022/03/30 08:42:13;;;;;;;0.30;0.30;;;9.90;99.90;;;;;;5036219;28;20171;-64
2022/03/30 08:44:41;;;;;;;0.57;0.57;;;10.00;99.90;;;;;;5036285;28;20260;-64
2022/03/30 08:47:09;;;;;;;0.30;0.30;;;10.30;99.90;;;;;;5036254;28;20243;-64
2022/03/30 08:49:37;;;;;;;0.30;0.30;;;10.20;99.80;;;;;;5035982;28;20561;-64
2022/03/30 08:52:07;;;;;;;0.30;0.30;;;10.00;99.90;;;;;;5034634;28;20174;-64
2022/03/30 08:54:34;;;;;;;0.30;0.30;;;10.00;99.90;;;;;;5035987;28;20212;-63
2022/03/30 08:57:01;;;;;;;0.50;0.50;;;10.10;99.90;;;;;;5035912;28;20174;-64
2022/03/30 08:59:27;;;;;;;0.40;0.40;;;10.20;99.90;;;;;;5035502;28;20213;-63
2022/03/30 09:01:55;;;;;;;0.57;0.57;;;10.00;99.90;;;;;;5035835;28;20170;-64
2022/03/30 09:04:21;;;;;;;0.30;0.30;;;9.50;99.90;;;;;;5034824;28;20178;-64
2022/03/30 09:06:53;;;;;;;0.30;0.30;;;9.20;99.90;;;;;;5035909;28;20533;-63
2022/03/30 09:09:38;;;;;;;0.30;0.30;;;9.00;99.90;;;;;;5035578;28;20178;-63
2022/03/30 09:12:10;;;;;;;0.30;0.30;;;9.20;99.90;;;;;;5036038;28;20181;-63
2022/03/30 09:14:39;;;;;;;0.40;0.40;;;9.40;99.90;;;;;;5035858;28;20235;-64
2022/03/30 09:17:07;;;;;;;0.30;0.30;;;9.60;99.90;;;;;;5035565;28;20224;-63
2022/03/30 09:19:36;;;;;;;0.40;0.40;;;9.30;99.90;;;;;;5035565;28;20206;-64
2022/03/30 09:22:04;;;;;;;0.40;0.40;;;9.10;99.90;;;;;;5035473;28;20209;-63
2022/03/30 09:24:32;;;;;;;0.30;0.30;;;9.00;99.90;;;;;;5035644;28;20174;-63
2022/03/30 09:26:59;;;;;;;0.73;0.73;;;9.30;99.90;;;;;;5035368;28;20204;-64
2022/03/30 09:29:29;;;;;;;1.05;1.05;;;9.30;99.90;;;;;;5035285;28;20178;-63
2022/03/30 09:31:55;;;;;;;2.60;1.25;;;9.30;99.90;;;;;;5034115;28;20182;-64
2022/03/30 09:34:21;;;;;;;2.60;2.10;;;9.70;99.90;;;;;;5035478;28;20314;-64
2022/03/30 09:36:50;;;;;;;0.50;0.50;;;10.30;99.90;;;;;;5035453;28;20412;-63
2022/03/30 09:39:36;;;;;;;0.30;0.30;;;10.70;99.90;;;;;;5034939;28;20739;-64
2022/03/30 09:42:04;;;;;;;0.50;0.50;;;10.90;99.90;;;;;;5035219;28;20644;-64
2022/03/30 09:44:43;;;;;;;0.30;0.30;;;10.90;99.40;;;;;;5035216;28;20171;-63
2022/03/30 09:47:09;;;;;;;0.52;0.52;;;10.90;99.40;;;;;;5035065;28;20166;-64
2022/03/30 09:49:43;;;;;;;0.30;0.30;;;10.70;99.40;;;;;;5034857;28;20195;-64
2022/03/30 09:52:18;;;;;;;0.30;0.30;;;10.70;99.50;;;;;;5035054;28;20253;-63
2022/03/30 09:54:58;;;;;;;0.30;0.30;;;10.70;99.30;;;;;;5035234;28;20177;-64
2022/03/30 09:57:38;;;;;;;0.30;0.30;;;10.60;99.90;;;;;;5034880;28;20248;-63
2022/03/30 10:00:10;;;;;;;0.30;0.30;;;10.50;99.90;;;;;;5034723;28;20165;-64
2022/03/30 10:02:40;;;;;;;0.40;0.40;;;10.50;99.90;;;;;;5034759;28;20532;-64
2022/03/30 10:05:08;;;;;;;0.30;0.30;;;10.70;99.60;;;;;;5034706;28;20571;-63
2022/03/30 10:07:34;;;;;;;0.80;0.80;;;11.00;99.70;;;;;;5034639;28;20187;-64
2022/03/30 10:10:00;;;;;;;0.30;0.30;;;11.40;99.30;;;;;;5034493;28;20170;-63
2022/03/30 10:12:27;;;;;;;0.30;0.30;;;11.60;97.80;;;;;;5034736;28;20419;-64
2022/03/30 10:14:56;;;;;;;0.30;0.30;;;11.70;97.20;;;;;;5034585;28;20253;-63
2022/03/30 10:17:24;;;;;;;0.60;0.60;;;11.70;97.40;;;;;;5034405;28;20653;-64
2022/03/30 10:19:52;;;;;;;0.30;0.30;;;11.90;97.50;;;;;;5034453;28;20221;-63
2022/03/30 10:22:43;;;;;;;0.30;0.30;;;11.80;97.20;;;;;;5034493;28;20189;-64
2022/03/30 10:25:56;;;;;;;0.60;0.60;;;11.90;97.00;;;;;;5034585;28;20171;-64
2022/03/30 10:28:24;;;;;;;0.30;0.30;;;11.70;97.10;;;;;;5034526;28;20229;-63
2022/03/30 10:30:57;;;;;;;0.30;0.30;;;11.60;97.10;;;;;;5034347;28;20166;-63
2022/03/30 10:33:40;;;;;;;0.70;0.70;;;11.10;97.60;;;;;;5034668;28;20171;-64
2022/03/30 10:36:26;;;;;;;0.30;0.30;;;11.20;97.90;;;;;;5034211;28;20528;-63
2022/03/30 10:39:14;;;;;;;0.30;0.30;;;10.80;98.50;;;;;;5034117;28;20727;-63
2022/03/30 10:42:08;;;;;;;0.35;0.35;;;10.60;99.30;;;;;;5034388;28;20216;-64
2022/03/30 10:44:40;;;;;;;0.55;0.55;;;11.10;99.40;;;;;;5034183;28;20179;-65
2022/03/30 10:47:14;;;;;;;0.30;0.30;;;11.40;98.90;;;;;;5034108;28;20217;-64
2022/03/30 10:49:55;;;;;;;0.30;0.30;;;11.80;98.30;;;;;;5033873;28;20163;-64
2022/03/30 10:52:33;;;;;;;0.30;0.30;;;12.10;97.10;;;;;;5033752;28;20182;-63
2022/03/30 10:55:14;;;;;;;0.30;0.30;;;12.60;96.40;;;;;;5032575;28;20640;-64
2022/03/30 10:57:47;;;;;;;0.30;0.30;;;13.00;95.20;;;;;;5033750;28;20256;-64
2022/03/30 11:00:36;;;;;;;0.30;0.30;;;13.30;94.80;;;;;;5033619;28;20159;-64
2022/03/30 11:03:16;;;;;;;0.30;0.30;;;13.40;94.10;;;;;;5033950;28;20175;-64
2022/03/30 11:06:06;;;;;;;0.30;0.30;;;12.60;94.90;;;;;;5033981;28;20254;-64
2022/03/30 11:08:32;;;;;;;0.47;0.47;;;12.50;95.20;;;;;;5033482;28;20264;-63
2022/03/30 11:11:01;;;;;;;0.30;0.30;;;13.30;94.90;;;;;;5033673;28;20397;-64
2022/03/30 11:13:28;;;;;;;0.30;0.30;;;13.60;94.20;;;;;;5033798;28;20163;-63
2022/03/30 11:15:59;;;;;;;0.37;0.37;;;13.50;93.80;;;;;;5032856;28;20542;-64
2022/03/30 11:18:27;;;;;;;0.30;0.30;;;13.50;93.30;;;;;;5033400;28;20489;-64
2022/03/30 11:21:19;;;;;;;0.40;0.40;;;13.70;93.70;;;;;;5033711;28;20412;-64
2022/03/30 11:24:08;;;;;;;0.40;0.40;;;14.00;93.10;;;;;;5033632;28;20767;-64
2022/03/30 11:26:59;;;;;;;0.30;0.30;;;14.40;92.40;;;;;;5033690;28;20756;-64
2022/03/30 11:29:40;;;;;;;0.30;0.30;;;14.50;90.90;;;;;;5031902;28;20427;-63
2022/03/30 11:32:24;;;;;;;0.40;0.40;;;14.30;91.50;;;;;;5033525;28;20412;-64
2022/03/30 11:34:54;;;;;;;0.60;0.60;;;14.50;92.00;;;;;;5033321;28;20420;-64
2022/03/30 11:37:30;;;;;;;0.30;0.30;;;14.20;91.80;;;;;;5033359;28;20879;-64
2022/03/30 11:40:18;;;;;;;0.90;0.77;;;13.90;91.90;;;;;;5033022;28;21004;-64
2022/03/30 11:42:55;;;;;;;0.30;0.30;;;14.00;91.60;;;;;;5033602;28;20770;-64
2022/03/30 11:45:24;;;;;;;0.30;0.30;;;14.10;92.10;;;;;;5033536;28;20483;-64
2022/03/30 11:47:55;;;;;;;0.30;0.30;;;14.20;92.00;;;;;;5033279;28;20416;-64
2022/03/30 11:50:45;;;;;;;0.30;0.30;;;14.50;91.80;;;;;;5033131;28;20500;-64
2022/03/30 11:53:12;;;;;;;0.30;0.30;;;14.90;90.90;;;;;;5033616;28;20824;-64
2022/03/30 11:55:50;;;;;;;0.30;0.30;;;14.70;90.60;;;;;;5033202;28;20396;-64
2022/03/30 11:58:31;;;;;;;0.40;0.40;;;15.20;90.90;;;;;;5033126;28;20461;-64
2022/03/30 12:00:59;;;;;;;0.30;0.30;;;15.50;90.20;;;;;;5032852;28;20403;-64
2022/03/30 12:03:25;;;;;;;0.30;0.30;;;15.20;89.70;;;;;;5033150;28;20894;-64
2022/03/30 12:05:59;;;;;;;0.30;0.30;;;14.50;90.30;;;;;;5033102;28;20402;-64
2022/03/30 12:08:26;;;;;;;0.30;0.30;;;13.50;92.20;;;;;;5033160;28;20428;-64
2022/03/30 12:10:58;;;;;;;0.87;0.87;;;13.00;93.50;;;;;;5032966;28;20412;-65
2022/03/30 12:13:25;;;;;;;0.30;0.30;;;12.30;95.40;;;;;;5033131;28;20414;-65
2022/03/30 12:16:14;;;;;;;0.30;0.30;;;12.40;95.70;;;;;;5033141;28;20414;-64
2022/03/30 12:18:49;;;;;;;0.50;0.50;;;11.90;95.70;;;;;;5032819;28;20458;-64
2022/03/30 12:21:19;;;;;;;0.30;0.30;;;11.60;97.40;;;;;;5032523;28;20452;-64
2022/03/30 12:23:59;;;;;;;0.30;0.30;;;11.40;97.90;;;;;;5033157;28;20417;-64
2022/03/30 12:26:25;;;;;;;0.70;0.70;;;11.50;97.90;;;;;;5033547;28;20183;-65
2022/03/30 12:29:09;;;;;;;0.30;0.30;;;11.20;98.40;;;;;;5036342;28;20217;-64
2022/03/30 12:31:40;;;;;;;0.30;0.30;;;11.20;98.60;;;;;;5036741;28;20170;-64
2022/03/30 12:34:10;;;;;;;0.30;0.30;;;11.30;98.50;;;;;;5036766;28;20592;-65
2022/03/30 12:36:53;;;;;;;0.30;0.30;;;11.40;98.70;;;;;;5036433;28;20171;-64
2022/03/30 12:39:33;;;;;;;0.50;0.50;;;11.10;98.90;;;;;;5036104;28;20286;-64
2022/03/30 12:42:01;;;;;;;0.30;0.30;;;11.30;99.80;;;;;;5036571;28;20232;-64
2022/03/30 12:44:29;;;;;;;0.30;0.30;;;11.80;99.00;;;;;;5036475;28;20163;-64
2022/03/30 12:46:55;;;;;;;0.30;0.30;;;12.20;98.00;;;;;;5036377;28;20534;-64
2022/03/30 12:49:39;;;;;;;0.32;0.32;;;12.30;96.10;;;;;;5036378;28;20175;-64
2022/03/30 12:52:14;;;;;;;0.30;0.30;;;12.20;94.80;;;;;;5036084;28;20179;-64
2022/03/30 12:54:45;;;;;;;0.30;0.30;;;12.20;94.80;;;;;;5036203;28;20257;-65
2022/03/30 12:57:11;;;;;;;0.30;0.30;;;12.20;94.60;;;;;;5035963;28;20225;-64
2022/03/30 12:59:40;;;;;;;0.30;0.30;;;12.00;95.50;;;;;;5035588;28;20610;-65
2022/03/30 13:02:24;;;;;;;0.30;0.30;;;12.10;95.80;;;;;;5035896;28;20262;-64
2022/03/30 13:04:54;;;;;;;0.30;0.30;;;12.10;95.80;;;;;;5035968;28;20174;-64